Time;durP1;ratioP1;P1;durP2;ratioP2;P2;SDS_P1;SDS_P2;PMS_P1;PMS_P2;Temp;Humidity;BMP_temperature;BMP_pressure;BME280_temperature;BME280_humidity;BME280_pressure;Samples;Min_cycle;Max_cycle;Signal;HPM_P1;HPM_P2
2022/10/23 00:00:13;;;;;;;4.45;2.80;;;21.70;57.50;;;;;;5075777;28;45381;-64
2022/10/23 00:02:40;;;;;;;4.88;3.10;;;21.70;57.30;;;;;;5075532;28;45416;-65
2022/10/23 00:05:07;;;;;;;3.72;2.78;;;21.70;57.50;;;;;;5074964;28;46269;-66
2022/10/23 00:07:34;;;;;;;5.50;3.05;;;21.70;57.40;;;;;;5073411;28;45293;-66
2022/10/23 00:10:00;;;;;;;4.80;3.00;;;21.80;57.50;;;;;;5075168;28;44687;-66
2022/10/23 00:12:29;;;;;;;3.00;2.63;;;21.80;57.40;;;;;;5075211;28;45600;-65
2022/10/23 00:14:56;;;;;;;5.55;3.08;;;21.80;57.20;;;;;;5073191;28;45719;-64
2022/10/23 00:17:22;;;;;;;5.97;3.17;;;21.90;57.20;;;;;;5084571;28;45458;-64
2022/10/23 00:19:49;;;;;;;5.18;3.33;;;21.80;57.00;;;;;;5101844;27;45352;-64
2022/10/23 00:22:16;;;;;;;5.22;3.60;;;21.90;57.00;;;;;;5106953;27;45349;-64
2022/10/23 00:24:43;;;;;;;5.65;3.03;;;21.90;57.40;;;;;;5106794;27;47386;-66
2022/10/23 00:27:10;;;;;;;3.95;2.83;;;21.90;56.80;;;;;;5107118;27;45304;-65
2022/10/23 00:29:38;;;;;;;4.38;3.00;;;21.90;57.10;;;;;;5102309;27;45402;-63
2022/10/23 00:32:05;;;;;;;3.97;3.22;;;21.80;56.90;;;;;;5097094;27;45462;-65
2022/10/23 00:34:32;;;;;;;3.78;2.78;;;21.90;57.10;;;;;;5095133;27;45433;-65
2022/10/23 00:36:59;;;;;;;4.85;2.70;;;21.90;57.10;;;;;;5095688;27;45514;-65
2022/10/23 00:39:25;;;;;;;3.30;2.97;;;21.90;57.10;;;;;;5094942;27;45245;-63
2022/10/23 00:41:52;;;;;;;6.20;3.20;;;21.90;56.80;;;;;;5095966;27;45383;-64
2022/10/23 00:44:56;;;;;;;4.53;3.13;;;21.90;56.90;;;;;;5098376;27;46479;-64
2022/10/23 00:47:25;;;;;;;4.30;2.83;;;21.90;56.80;;;;;;5097510;27;45299;-65
2022/10/23 00:49:52;;;;;;;3.40;2.63;;;21.80;57.10;;;;;;5097098;27;45198;-63
2022/10/23 00:52:18;;;;;;;4.18;3.05;;;21.90;57.00;;;;;;5097033;27;45348;-64
2022/10/23 00:54:45;;;;;;;3.13;2.50;;;21.80;57.60;;;;;;5092291;27;46743;-64
2022/10/23 00:57:13;;;;;;;3.15;2.85;;;21.80;57.00;;;;;;5098081;27;45458;-63
2022/10/23 00:59:41;;;;;;;2.72;2.47;;;21.70;57.10;;;;;;5094980;27;45388;-64
2022/10/23 01:02:08;;;;;;;3.28;2.60;;;21.80;57.00;;;;;;5093932;27;45235;-68
2022/10/23 01:04:36;;;;;;;2.97;2.60;;;21.80;56.90;;;;;;5098388;27;45314;-66
2022/10/23 01:07:05;;;;;;;3.00;2.70;;;21.70;57.00;;;;;;5097447;27;45253;-65
2022/10/23 01:09:33;;;;;;;5.22;2.70;;;21.70;57.00;;;;;;5092586;27;45229;-66
2022/10/23 01:12:03;;;;;;;4.78;2.50;;;21.70;57.20;;;;;;5083976;28;45434;-66
2022/10/23 01:14:31;;;;;;;4.85;2.53;;;21.60;57.30;;;;;;5085795;28;45516;-66
2022/10/23 01:17:02;;;;;;;131.20;116.72;;;21.50;57.40;;;;;;5085592;28;45240;-68
2022/10/23 01:19:46;;;;;;;33.45;29.38;;;21.50;57.60;;;;;;5085889;28;45291;-67
2022/10/23 01:22:21;;;;;;;46.63;41.60;;;21.50;57.60;;;;;;5086042;28;45380;-65
2022/10/23 01:24:49;;;;;;;55.65;49.75;;;21.50;57.70;;;;;;5088400;27;45351;-64
2022/10/23 01:27:22;;;;;;;63.05;56.35;;;21.50;57.70;;;;;;5086172;28;45196;-66
2022/10/23 01:29:52;;;;;;;41.22;36.92;;;21.50;57.50;;;;;;5085723;28;45260;-66
2022/10/23 01:32:22;;;;;;;32.70;29.05;;;21.60;57.30;;;;;;5085613;28;45455;-67
2022/10/23 01:34:50;;;;;;;46.33;40.22;;;21.60;57.40;;;;;;5085852;28;46678;-66
2022/10/23 01:37:21;;;;;;;58.22;52.25;;;21.60;57.50;;;;;;5086345;28;45317;-65
2022/10/23 01:39:49;;;;;;;55.70;50.20;;;21.70;57.90;;;;;;5085830;28;45321;-66
2022/10/23 01:42:17;;;;;;;30.95;26.27;;;21.70;57.00;;;;;;5085810;28;45454;-66
2022/10/23 01:44:46;;;;;;;29.42;26.33;;;21.70;56.90;;;;;;5085700;28;45299;-66
2022/10/23 01:47:14;;;;;;;29.35;26.35;;;21.70;57.10;;;;;;5085655;28;45376;-66
2022/10/23 01:49:41;;;;;;;28.58;25.48;;;21.60;57.20;;;;;;5085538;28;45201;-66
2022/10/23 01:52:09;;;;;;;28.27;25.48;;;21.50;57.10;;;;;;5086652;28;45455;-64
2022/10/23 01:54:37;;;;;;;28.23;25.23;;;21.50;57.50;;;;;;5085868;28;45386;-66
2022/10/23 01:57:04;;;;;;;26.20;23.33;;;21.40;57.60;;;;;;5085893;27;45242;-65
2022/10/23 01:59:34;;;;;;;25.35;22.67;;;21.40;57.60;;;;;;5089317;28;45198;-66
2022/10/23 02:02:02;;;;;;;24.40;20.85;;;21.40;57.70;;;;;;5089661;28;45412;-64
2022/10/23 02:04:30;;;;;;;25.52;22.60;;;21.40;57.60;;;;;;5089367;28;45383;-65
2022/10/23 02:06:57;;;;;;;23.88;21.35;;;21.30;57.70;;;;;;5089499;28;45208;-66
2022/10/23 02:09:24;;;;;;;23.15;20.63;;;21.30;57.80;;;;;;5089683;28;45188;-66
2022/10/23 02:11:54;;;;;;;22.98;20.48;;;21.30;57.70;;;;;;5089668;28;45337;-66
2022/10/23 02:14:25;;;;;;;20.85;18.75;;;21.30;58.50;;;;;;5088898;28;47319;-65
2022/10/23 02:16:53;;;;;;;20.92;18.77;;;21.20;58.10;;;;;;5071686;28;45324;-65
2022/10/23 02:19:26;;;;;;;19.27;17.15;;;21.30;57.80;;;;;;5067840;28;45297;-65
2022/10/23 02:21:54;;;;;;;20.80;17.60;;;21.30;57.60;;;;;;5068354;28;45349;-64
2022/10/23 02:24:25;;;;;;;18.65;16.50;;;21.30;57.60;;;;;;5067592;28;46464;-64
2022/10/23 02:26:53;;;;;;;18.85;15.68;;;21.40;57.50;;;;;;5067676;28;45325;-64
2022/10/23 02:29:21;;;;;;;18.65;16.17;;;21.40;57.40;;;;;;5067910;28;45237;-64
2022/10/23 02:31:48;;;;;;;17.42;15.57;;;21.40;57.40;;;;;;5067951;28;45186;-63
2022/10/23 02:34:14;;;;;;;16.90;15.27;;;21.40;57.30;;;;;;5067547;28;45492;-64
2022/10/23 02:36:43;;;;;;;16.23;14.63;;;21.40;57.10;;;;;;5077468;28;45522;-65
2022/10/23 02:39:09;;;;;;;15.77;14.18;;;21.40;57.30;;;;;;5087832;28;45238;-65
2022/10/23 02:41:39;;;;;;;17.10;14.02;;;21.40;57.20;;;;;;5088139;28;45364;-65
2022/10/23 02:44:17;;;;;;;16.95;14.25;;;21.40;57.20;;;;;;5087423;28;46403;-65
2022/10/23 02:46:49;;;;;;;15.32;13.80;;;21.40;57.20;;;;;;5087723;28;45299;-66
2022/10/23 02:49:19;;;;;;;13.95;12.43;;;21.40;57.20;;;;;;5087936;28;45366;-64
2022/10/23 02:51:57;;;;;;;14.18;12.50;;;21.40;57.80;;;;;;5087883;28;45268;-64
2022/10/23 02:54:30;;;;;;;14.13;11.70;;;21.40;57.20;;;;;;5067250;28;47304;-64
2022/10/23 02:57:00;;;;;;;12.40;11.10;;;21.30;57.10;;;;;;5067292;28;45263;-63
2022/10/23 02:59:31;;;;;;;13.27;11.80;;;21.40;57.20;;;;;;5072358;28;45381;-64
2022/10/23 03:02:01;;;;;;;12.23;11.07;;;21.40;57.20;;;;;;5087916;28;45217;-67
2022/10/23 03:04:28;;;;;;;13.13;10.90;;;21.30;57.80;;;;;;5087344;28;46393;-66
2022/10/23 03:06:56;;;;;;;12.73;11.52;;;21.30;57.20;;;;;;5088213;28;45258;-66
2022/10/23 03:09:23;;;;;;;11.23;10.23;;;21.20;57.30;;;;;;5086823;28;45198;-66
2022/10/23 03:11:50;;;;;;;11.50;10.38;;;21.10;57.50;;;;;;5087662;28;45328;-67
2022/10/23 03:14:17;;;;;;;10.95;9.93;;;21.00;57.70;;;;;;5087299;28;47567;-66
2022/10/23 03:16:43;;;;;;;10.60;9.60;;;20.90;57.90;;;;;;5087094;28;45384;-67
2022/10/23 03:19:11;;;;;;;11.18;9.40;;;20.80;58.00;;;;;;5087312;28;45316;-67
2022/10/23 03:21:38;;;;;;;10.18;9.18;;;20.80;58.20;;;;;;5087480;28;45189;-67
2022/10/23 03:24:07;;;;;;;11.38;9.55;;;20.70;58.30;;;;;;5087051;28;45327;-67
2022/10/23 03:26:34;;;;;;;10.18;9.18;;;20.60;58.30;;;;;;5087093;28;45233;-67
2022/10/23 03:29:00;;;;;;;9.70;8.80;;;20.50;59.10;;;;;;5087224;28;45164;-67
2022/10/23 03:31:27;;;;;;;9.15;8.27;;;20.50;58.60;;;;;;5087328;28;45205;-67
2022/10/23 03:33:54;;;;;;;9.02;8.13;;;20.50;58.70;;;;;;5086872;28;45246;-67
2022/10/23 03:36:21;;;;;;;9.23;8.32;;;20.40;59.20;;;;;;5086831;28;45331;-67
2022/10/23 03:38:48;;;;;;;8.57;7.78;;;20.40;58.70;;;;;;5086962;28;45288;-68
2022/10/23 03:41:16;;;;;;;8.88;7.97;;;20.40;58.80;;;;;;5087256;28;45450;-67
2022/10/23 03:43:43;;;;;;;8.52;7.72;;;20.40;58.70;;;;;;5086630;28;47281;-68
2022/10/23 03:46:11;;;;;;;8.27;7.03;;;20.40;58.70;;;;;;5086904;28;45331;-68
2022/10/23 03:48:38;;;;;;;8.90;7.60;;;20.40;58.70;;;;;;5086887;28;45303;-68
2022/10/23 03:51:05;;;;;;;8.15;7.35;;;20.30;58.70;;;;;;5087139;28;45189;-68
2022/10/23 03:53:32;;;;;;;8.32;7.53;;;20.30;58.70;;;;;;5086501;28;46550;-68
2022/10/23 03:55:59;;;;;;;8.15;7.10;;;20.30;58.80;;;;;;5086658;28;45254;-67
2022/10/23 03:58:27;;;;;;;7.45;6.75;;;20.20;58.80;;;;;;5086737;28;45343;-67
2022/10/23 04:00:54;;;;;;;7.60;6.80;;;20.20;58.80;;;;;;5086714;28;45230;-69
2022/10/23 04:03:21;;;;;;;7.38;6.63;;;20.20;58.90;;;;;;5086376;28;46406;-69
2022/10/23 04:05:48;;;;;;;7.43;6.53;;;20.10;59.00;;;;;;5086521;28;45285;-69
2022/10/23 04:08:15;;;;;;;7.50;6.80;;;20.10;59.00;;;;;;5086462;28;45238;-69
2022/10/23 04:10:41;;;;;;;6.65;6.05;;;20.10;59.10;;;;;;5086605;28;45392;-69
2022/10/23 04:13:08;;;;;;;6.65;6.03;;;20.00;59.20;;;;;;5086281;28;45480;-69
2022/10/23 04:15:36;;;;;;;6.85;6.03;;;20.00;59.20;;;;;;5086247;28;45304;-68
2022/10/23 04:18:04;;;;;;;6.10;5.60;;;19.90;59.80;;;;;;5086504;28;45343;-68
2022/10/23 04:20:31;;;;;;;6.85;6.22;;;19.90;59.30;;;;;;5085417;27;45423;-68
2022/10/23 04:22:58;;;;;;;6.10;5.60;;;19.90;59.90;;;;;;5085989;28;46390;-69
2022/10/23 04:25:25;;;;;;;6.47;5.80;;;19.80;60.00;;;;;;5086361;28;45280;-69
2022/10/23 04:27:52;;;;;;;7.00;5.65;;;19.80;59.50;;;;;;5086126;28;45194;-69
2022/10/23 04:30:19;;;;;;;5.97;5.38;;;19.80;59.60;;;;;;5086429;28;45171;-69
2022/10/23 04:32:49;;;;;;;6.50;5.90;;;19.80;59.60;;;;;;5085989;28;47293;-69
2022/10/23 04:35:16;;;;;;;9.27;5.80;;;19.70;59.60;;;;;;5086066;28;45248;-68
2022/10/23 04:37:43;;;;;;;6.15;5.55;;;19.70;60.40;;;;;;5086007;28;45234;-69
2022/10/23 04:40:10;;;;;;;6.25;5.60;;;19.60;59.70;;;;;;5086163;28;45289;-69
2022/10/23 04:42:37;;;;;;;6.03;5.43;;;19.60;59.80;;;;;;5085753;28;45351;-69
2022/10/23 04:45:05;;;;;;;6.70;5.60;;;19.60;59.90;;;;;;5085591;28;45302;-68
2022/10/23 04:47:32;;;;;;;5.90;5.35;;;19.50;60.00;;;;;;5085915;28;45174;-69
2022/10/23 04:50:00;;;;;;;5.15;4.72;;;19.50;60.00;;;;;;5086119;28;45265;-69
2022/10/23 04:52:27;;;;;;;6.05;5.45;;;19.50;60.10;;;;;;5085714;28;46402;-69
2022/10/23 04:54:54;;;;;;;5.45;4.95;;;19.40;60.10;;;;;;5085798;28;45304;-68
2022/10/23 04:57:20;;;;;;;5.70;5.10;;;19.40;60.10;;;;;;5085763;28;45224;-68
2022/10/23 04:59:47;;;;;;;4.93;4.53;;;19.40;60.30;;;;;;5085919;28;45238;-69
2022/10/23 05:02:14;;;;;;;5.50;4.95;;;19.30;60.50;;;;;;5085584;28;45213;-68
2022/10/23 05:04:41;;;;;;;5.30;4.80;;;19.30;60.40;;;;;;5085532;28;45330;-68
2022/10/23 05:07:09;;;;;;;5.25;4.75;;;19.30;60.50;;;;;;5085859;28;45295;-68
2022/10/23 05:09:36;;;;;;;5.22;4.72;;;19.20;60.50;;;;;;5085859;28;45407;-68
2022/10/23 05:12:03;;;;;;;7.72;4.90;;;19.20;60.60;;;;;;5085475;28;46372;-68
2022/10/23 05:14:30;;;;;;;5.35;4.85;;;19.20;60.50;;;;;;5085412;28;45262;-70
2022/10/23 05:16:58;;;;;;;5.50;5.00;;;19.20;60.80;;;;;;5085819;28;45367;-69
2022/10/23 05:19:27;;;;;;;5.07;4.53;;;19.20;60.80;;;;;;5085952;28;45408;-70
2022/10/23 05:21:55;;;;;;;4.95;4.55;;;19.10;61.00;;;;;;5085508;28;47618;-69
2022/10/23 05:24:23;;;;;;;4.70;4.30;;;19.10;60.80;;;;;;5085646;28;45199;-69
2022/10/23 05:26:51;;;;;;;4.60;4.20;;;19.10;60.90;;;;;;5085630;28;45321;-69
2022/10/23 05:29:18;;;;;;;4.60;3.70;;;19.00;60.90;;;;;;5085952;28;45533;-69
2022/10/23 05:31:45;;;;;;;4.72;4.32;;;19.00;61.00;;;;;;5085354;27;46407;-68
2022/10/23 05:34:12;;;;;;;4.50;4.10;;;19.00;61.10;;;;;;5088724;28;45334;-69
2022/10/23 05:36:39;;;;;;;4.30;3.90;;;19.00;61.10;;;;;;5088790;28;45376;-68
2022/10/23 05:39:06;;;;;;;4.43;4.03;;;19.00;61.10;;;;;;5089095;28;45185;-67
2022/10/23 05:41:34;;;;;;;4.57;4.05;;;19.00;61.10;;;;;;5088702;28;46402;-68
2022/10/23 05:44:01;;;;;;;4.53;4.10;;;18.90;61.20;;;;;;5088467;28;45446;-68
2022/10/23 05:46:28;;;;;;;3.92;3.45;;;18.90;61.40;;;;;;5088843;28;45331;-68
2022/10/23 05:48:54;;;;;;;4.20;3.65;;;18.90;61.40;;;;;;5088992;28;45550;-68
2022/10/23 05:51:22;;;;;;;4.20;3.80;;;18.90;61.50;;;;;;5088446;28;45210;-68
2022/10/23 05:53:48;;;;;;;3.90;3.50;;;18.90;61.50;;;;;;5088557;28;45193;-67
2022/10/23 05:56:15;;;;;;;3.70;3.30;;;18.80;61.40;;;;;;5088732;28;45196;-68
2022/10/23 05:58:43;;;;;;;3.78;3.42;;;18.80;61.50;;;;;;5088722;28;45438;-67
2022/10/23 06:01:11;;;;;;;3.30;3.00;;;18.80;61.50;;;;;;5088314;28;46806;-67
2022/10/23 06:03:38;;;;;;;4.88;3.35;;;18.80;61.80;;;;;;5088354;28;45204;-68
2022/10/23 06:06:06;;;;;;;3.53;3.22;;;18.80;61.60;;;;;;5088647;28;45257;-69
2022/10/23 06:08:33;;;;;;;3.38;3.08;;;18.80;61.70;;;;;;5088790;28;45262;-69
2022/10/23 06:11:05;;;;;;;3.83;3.35;;;18.70;61.70;;;;;;5088396;28;47287;-70
2022/10/23 06:13:32;;;;;;;3.47;3.10;;;18.70;61.70;;;;;;5088402;28;45356;-70
2022/10/23 06:16:07;;;;;;;3.30;3.10;;;18.70;62.30;;;;;;5088531;28;45314;-69
2022/10/23 06:18:34;;;;;;;3.28;2.97;;;18.70;61.70;;;;;;5088495;28;45300;-69
2022/10/23 06:21:01;;;;;;;3.33;2.92;;;18.70;61.70;;;;;;5088069;28;45296;-70
2022/10/23 06:23:28;;;;;;;3.25;2.95;;;18.70;61.70;;;;;;5088095;28;45237;-70
2022/10/23 06:25:55;;;;;;;3.80;3.15;;;18.70;61.90;;;;;;5088345;28;45249;-69
2022/10/23 06:28:22;;;;;;;4.03;3.13;;;18.70;61.60;;;;;;5088435;28;45311;-70
2022/10/23 06:30:49;;;;;;;3.20;2.90;;;18.70;61.90;;;;;;5085499;28;45461;-69
2022/10/23 06:33:17;;;;;;;4.13;2.80;;;18.70;61.90;;;;;;5088112;28;45300;-69
2022/10/23 06:35:44;;;;;;;3.72;2.83;;;18.70;61.80;;;;;;5088226;28;45177;-68
2022/10/23 06:38:11;;;;;;;3.08;2.80;;;18.70;61.80;;;;;;5088325;28;45443;-68
2022/10/23 06:40:37;;;;;;;2.90;2.70;;;18.70;61.80;;;;;;5087809;28;46341;-68
2022/10/23 06:43:04;;;;;;;2.70;2.50;;;18.70;61.80;;;;;;5087202;28;45300;-69
2022/10/23 06:45:32;;;;;;;3.70;3.25;;;18.70;61.90;;;;;;5087528;28;45189;-69
2022/10/23 06:47:59;;;;;;;3.17;2.88;;;18.70;62.00;;;;;;5088222;28;45178;-68
2022/10/23 06:50:29;;;;;;;2.60;2.40;;;18.70;61.90;;;;;;5087492;28;45295;-68
2022/10/23 06:52:56;;;;;;;3.45;2.42;;;18.70;62.00;;;;;;5087528;28;45138;-67
2022/10/23 06:55:23;;;;;;;2.95;2.65;;;18.70;62.10;;;;;;5087904;28;45225;-68
2022/10/23 06:57:50;;;;;;;2.72;2.53;;;18.70;61.80;;;;;;5087765;28;45396;-68
2022/10/23 07:00:17;;;;;;;2.67;2.47;;;18.70;61.90;;;;;;5087396;28;46514;-68
2022/10/23 07:02:44;;;;;;;3.00;2.70;;;18.70;61.80;;;;;;5087438;28;45399;-68
2022/10/23 07:05:11;;;;;;;2.60;2.25;;;18.70;62.00;;;;;;5087509;28;45356;-67
2022/10/23 07:07:39;;;;;;;3.15;2.65;;;18.70;62.00;;;;;;5087645;28;45515;-68
2022/10/23 07:10:06;;;;;;;2.90;2.42;;;18.60;61.90;;;;;;5087177;28;46711;-68
2022/10/23 07:12:33;;;;;;;2.78;2.58;;;18.70;62.00;;;;;;5087320;28;45335;-68
2022/10/23 07:15:00;;;;;;;2.72;2.53;;;18.70;62.00;;;;;;5087463;28;45300;-68
2022/10/23 07:17:28;;;;;;;2.50;2.30;;;18.70;61.90;;;;;;5087665;28;45368;-68
2022/10/23 07:19:55;;;;;;;2.55;2.35;;;18.70;62.50;;;;;;5087038;28;47290;-68
2022/10/23 07:22:22;;;;;;;3.20;2.20;;;18.70;61.90;;;;;;5086956;28;45336;-68
2022/10/23 07:24:50;;;;;;;2.55;2.25;;;18.70;62.10;;;;;;5087401;28;45319;-68
2022/10/23 07:27:17;;;;;;;2.42;2.22;;;18.70;61.90;;;;;;5087518;28;45174;-68
2022/10/23 07:29:44;;;;;;;2.53;2.30;;;18.70;61.80;;;;;;5086779;28;46343;-68
2022/10/23 07:32:10;;;;;;;2.38;2.17;;;18.70;61.90;;;;;;5086959;28;45237;-68
2022/10/23 07:34:37;;;;;;;2.65;2.45;;;18.70;61.90;;;;;;5087070;28;45389;-68
2022/10/23 07:37:04;;;;;;;2.50;2.30;;;18.70;61.90;;;;;;5087224;28;45319;-68
2022/10/23 07:39:31;;;;;;;3.13;2.50;;;18.70;61.90;;;;;;5086811;28;45602;-68
2022/10/23 07:41:59;;;;;;;2.10;2.00;;;18.60;61.80;;;;;;5086788;28;45236;-68
2022/10/23 07:44:26;;;;;;;2.40;2.15;;;18.70;61.90;;;;;;5086601;28;45301;-68
2022/10/23 07:46:53;;;;;;;2.38;2.17;;;18.70;61.90;;;;;;5086955;28;45291;-68
2022/10/23 07:49:20;;;;;;;2.65;2.40;;;18.60;61.80;;;;;;5086573;28;46398;-68
2022/10/23 07:51:47;;;;;;;3.40;2.42;;;18.70;61.90;;;;;;5086550;28;45331;-67
2022/10/23 07:54:13;;;;;;;2.58;2.28;;;18.70;62.00;;;;;;5086748;28;45186;-67
2022/10/23 07:56:40;;;;;;;3.17;1.80;;;18.70;61.80;;;;;;5086652;27;45405;-68
2022/10/23 07:59:10;;;;;;;2.65;2.30;;;18.70;61.90;;;;;;5086473;28;46657;-68
2022/10/23 08:01:38;;;;;;;2.28;2.08;;;18.70;61.90;;;;;;5086455;28;45258;-67
2022/10/23 08:04:05;;;;;;;2.67;2.47;;;18.70;61.90;;;;;;5086648;28;45262;-68
2022/10/23 08:06:34;;;;;;;3.22;2.28;;;18.70;61.90;;;;;;5086771;28;45348;-68
2022/10/23 08:09:00;;;;;;;2.65;2.13;;;18.70;61.80;;;;;;5086317;28;45462;-68
2022/10/23 08:11:29;;;;;;;2.55;2.13;;;18.70;61.80;;;;;;5086496;28;45160;-68
2022/10/23 08:13:57;;;;;;;2.00;1.90;;;18.70;62.60;;;;;;5086506;28;45202;-68
2022/10/23 08:16:25;;;;;;;2.42;2.22;;;18.70;61.90;;;;;;5086557;28;45673;-68
2022/10/23 08:18:52;;;;;;;2.15;1.95;;;18.70;61.90;;;;;;5086139;28;46752;-68
2022/10/23 08:21:19;;;;;;;2.30;2.10;;;18.70;61.80;;;;;;5086162;28;45270;-68
2022/10/23 08:23:45;;;;;;;2.60;1.98;;;18.70;61.80;;;;;;5086390;28;45203;-68
2022/10/23 08:26:12;;;;;;;2.38;1.80;;;18.70;61.90;;;;;;5086402;28;45348;-68
2022/10/23 08:28:39;;;;;;;1.92;1.83;;;18.70;61.90;;;;;;5086239;28;47445;-68
2022/10/23 08:31:07;;;;;;;1.98;1.88;;;18.70;62.50;;;;;;5085847;28;45345;-68
2022/10/23 08:33:35;;;;;;;2.33;2.13;;;18.80;61.90;;;;;;5086145;28;45238;-68
2022/10/23 08:36:02;;;;;;;1.85;1.75;;;18.70;61.90;;;;;;5086335;28;45491;-68
2022/10/23 08:38:29;;;;;;;4.03;2.03;;;18.80;61.90;;;;;;5085892;28;46395;-67
2022/10/23 08:40:56;;;;;;;2.15;1.95;;;18.80;61.90;;;;;;5085876;28;45392;-68
2022/10/23 08:43:26;;;;;;;2.00;1.90;;;18.80;61.90;;;;;;5085666;28;45257;-68
2022/10/23 08:45:55;;;;;;;2.13;1.88;;;18.80;61.80;;;;;;5086129;28;45330;-68
2022/10/23 08:48:24;;;;;;;2.00;1.90;;;18.80;61.80;;;;;;5085711;28;45361;-68
2022/10/23 08:50:54;;;;;;;2.00;1.90;;;18.80;61.90;;;;;;5085910;28;45264;-69
2022/10/23 08:53:27;;;;;;;2.20;1.75;;;18.80;61.90;;;;;;5086031;28;45366;-68
2022/10/23 08:55:57;;;;;;;1.75;1.65;;;18.80;61.90;;;;;;5086069;28;45382;-68
2022/10/23 08:58:28;;;;;;;2.03;1.83;;;18.80;61.80;;;;;;5085685;28;45221;-68
2022/10/23 09:00:54;;;;;;;2.35;2.15;;;18.90;62.00;;;;;;5085632;28;45260;-68
2022/10/23 09:03:21;;;;;;;2.53;2.00;;;18.90;62.00;;;;;;5085812;28;45347;-68
2022/10/23 09:05:56;;;;;;;1.80;1.70;;;18.90;62.00;;;;;;5085976;28;45175;-67
2022/10/23 09:08:33;;;;;;;2.10;1.77;;;18.90;62.00;;;;;;5084813;28;47868;-68
2022/10/23 09:11:04;;;;;;;1.88;1.77;;;18.90;62.00;;;;;;5085661;28;45238;-68
2022/10/23 09:13:47;;;;;;;1.70;1.60;;;18.90;62.00;;;;;;5085802;28;45300;-68
2022/10/23 09:16:18;;;;;;;1.83;1.70;;;18.90;62.00;;;;;;5085799;28;45308;-68
2022/10/23 09:18:47;;;;;;;1.63;1.50;;;18.90;62.00;;;;;;5085420;28;45491;-68
2022/10/23 09:21:15;;;;;;;1.70;1.60;;;18.90;62.00;;;;;;5085396;28;45253;-67
2022/10/23 09:23:42;;;;;;;1.80;1.70;;;18.90;62.00;;;;;;5085505;28;45291;-67
2022/10/23 09:26:13;;;;;;;2.08;1.88;;;18.90;62.70;;;;;;5085658;28;45179;-68
2022/10/23 09:28:45;;;;;;;2.00;1.45;;;19.00;62.10;;;;;;5085306;28;46734;-68
2022/10/23 09:31:12;;;;;;;1.70;1.60;;;19.00;62.00;;;;;;5085329;28;45343;-67
2022/10/23 09:33:39;;;;;;;1.60;1.50;;;19.00;62.10;;;;;;5085430;28;45355;-68
2022/10/23 09:36:07;;;;;;;1.65;1.55;;;19.00;61.90;;;;;;5085349;28;45328;-68
2022/10/23 09:38:36;;;;;;;1.83;1.63;;;19.00;61.90;;;;;;5084965;28;46947;-67
2022/10/23 09:41:06;;;;;;;2.05;1.60;;;19.00;61.90;;;;;;5085080;28;45347;-67
2022/10/23 09:43:32;;;;;;;1.67;1.58;;;19.10;62.00;;;;;;5084796;28;45281;-68
2022/10/23 09:46:01;;;;;;;2.47;1.80;;;19.10;62.00;;;;;;5085403;28;45207;-68
2022/10/23 09:48:30;;;;;;;1.63;1.52;;;19.10;62.00;;;;;;5084960;28;45329;-67
2022/10/23 09:50:58;;;;;;;1.65;1.55;;;19.10;62.00;;;;;;5085298;28;45217;-67
2022/10/23 09:53:29;;;;;;;2.00;1.80;;;19.10;62.00;;;;;;5085148;28;45297;-68
2022/10/23 09:55:59;;;;;;;2.47;1.70;;;19.10;61.90;;;;;;5085234;28;45396;-68
2022/10/23 09:58:31;;;;;;;1.60;1.50;;;19.10;62.00;;;;;;5084881;28;45305;-67
2022/10/23 10:00:58;;;;;;;2.78;1.58;;;19.20;62.00;;;;;;5082302;28;45208;-68
2022/10/23 10:03:25;;;;;;;1.65;1.55;;;19.20;61.90;;;;;;5084924;28;45267;-67
2022/10/23 10:05:57;;;;;;;3.85;1.50;;;19.20;61.80;;;;;;5085028;28;45191;-68
2022/10/23 10:08:27;;;;;;;1.60;1.50;;;19.20;61.90;;;;;;5084650;28;45206;-68
2022/10/23 10:10:56;;;;;;;2.30;1.60;;;19.20;61.90;;;;;;5084696;28;45292;-68
2022/10/23 10:13:35;;;;;;;1.60;1.50;;;19.20;61.90;;;;;;5084881;28;45233;-67
2022/10/23 10:16:03;;;;;;;1.60;1.50;;;19.20;61.80;;;;;;5085073;28;45124;-67
2022/10/23 10:18:32;;;;;;;3.28;1.52;;;19.30;61.80;;;;;;5085933;27;46387;-66
2022/10/23 10:21:04;;;;;;;1.65;1.50;;;19.30;61.80;;;;;;5088130;28;45206;-68
2022/10/23 10:23:35;;;;;;;1.65;1.50;;;19.30;61.60;;;;;;5088197;28;45296;-67
2022/10/23 10:26:07;;;;;;;1.60;1.50;;;19.40;61.60;;;;;;5088401;28;45332;-67
2022/10/23 10:28:45;;;;;;;1.73;1.23;;;19.40;61.30;;;;;;5088012;28;45346;-67
2022/10/23 10:31:15;;;;;;;1.40;1.30;;;19.50;61.20;;;;;;5087931;28;45294;-67
2022/10/23 10:33:47;;;;;;;1.73;1.52;;;19.50;61.90;;;;;;5088073;28;45288;-67
2022/10/23 10:36:20;;;;;;;1.45;1.35;;;19.50;61.20;;;;;;5088152;28;45447;-67
2022/10/23 10:38:48;;;;;;;1.42;1.33;;;19.50;61.20;;;;;;5087898;28;46336;-67
2022/10/23 10:41:30;;;;;;;1.70;1.60;;;19.60;61.10;;;;;;5087794;28;45335;-68
2022/10/23 10:44:08;;;;;;;1.95;1.40;;;19.60;61.10;;;;;;5087550;28;45324;-69
2022/10/23 10:46:36;;;;;;;1.65;1.55;;;19.60;61.10;;;;;;5087283;28;45400;-67
2022/10/23 10:49:06;;;;;;;1.60;1.50;;;19.60;61.00;;;;;;5086589;28;47593;-67
2022/10/23 10:51:36;;;;;;;1.40;1.30;;;19.70;61.00;;;;;;5087522;28;45372;-68
2022/10/23 10:54:11;;;;;;;1.40;1.30;;;19.70;60.90;;;;;;5087434;28;45327;-69
2022/10/23 10:56:39;;;;;;;1.45;1.35;;;19.70;60.80;;;;;;5087912;28;45285;-68
2022/10/23 10:59:12;;;;;;;1.40;1.30;;;19.70;60.80;;;;;;5087581;28;46319;-69
2022/10/23 11:01:41;;;;;;;1.55;1.45;;;19.70;60.70;;;;;;5087424;28;45174;-67
2022/10/23 11:04:11;;;;;;;1.30;1.20;;;19.70;60.70;;;;;;5087736;28;45383;-67
2022/10/23 11:06:38;;;;;;;1.45;1.35;;;19.80;60.50;;;;;;5085294;28;45220;-67
2022/10/23 11:09:10;;;;;;;2.58;1.40;;;19.80;60.50;;;;;;5087311;28;45200;-67
2022/10/23 11:11:39;;;;;;;1.65;1.45;;;19.90;60.30;;;;;;5087522;28;45329;-67
2022/10/23 11:14:07;;;;;;;1.30;1.20;;;19.90;60.00;;;;;;5087528;28;45193;-68
2022/10/23 11:16:35;;;;;;;1.70;1.60;;;20.00;60.10;;;;;;5086749;28;45304;-70
2022/10/23 11:19:06;;;;;;;1.58;1.48;;;20.00;59.80;;;;;;5085261;28;46728;-68
2022/10/23 11:21:36;;;;;;;1.23;1.20;;;20.10;59.90;;;;;;5084428;28;45342;-67
2022/10/23 11:24:28;;;;;;;1.40;1.30;;;20.10;59.90;;;;;;5085575;28;45353;-69
2022/10/23 11:27:02;;;;;;;1.30;1.20;;;20.10;59.70;;;;;;5075605;28;45448;-69
2022/10/23 11:29:41;;;;;;;1.30;1.23;;;20.00;60.70;;;;;;5084323;28;46665;-68
2022/10/23 11:32:20;;;;;;;1.48;1.38;;;20.10;60.90;;;;;;5085499;28;45311;-68
2022/10/23 11:34:54;;;;;;;1.20;1.20;;;20.10;61.30;;;;;;5085456;28;45715;-67
2022/10/23 11:37:21;;;;;;;1.40;1.30;;;20.10;61.40;;;;;;5085952;28;45190;-67
2022/10/23 11:39:59;;;;;;;1.38;1.27;;;20.10;61.30;;;;;;5084489;28;46383;-67
2022/10/23 11:42:33;;;;;;;1.55;1.30;;;20.10;61.50;;;;;;5082660;28;45459;-67
2022/10/23 11:45:01;;;;;;;1.30;1.20;;;20.10;61.40;;;;;;5085478;28;45305;-67
2022/10/23 11:47:31;;;;;;;1.15;1.15;;;20.20;61.20;;;;;;5084738;28;45442;-68
2022/10/23 11:50:24;;;;;;;1.50;1.40;;;20.20;61.00;;;;;;5085522;28;46395;-67
2022/10/23 11:52:59;;;;;;;1.35;1.25;;;20.30;61.30;;;;;;5078536;27;45446;-67
2022/10/23 11:55:27;;;;;;;1.20;1.10;;;20.30;61.20;;;;;;5084454;28;45601;-68
2022/10/23 11:58:21;;;;;;;1.55;1.30;;;20.40;61.20;;;;;;5082464;28;45441;-68
2022/10/23 12:00:55;;;;;;;1.63;1.52;;;20.50;60.70;;;;;;5084333;28;47568;-69
2022/10/23 12:03:24;;;;;;;1.88;1.20;;;20.60;61.60;;;;;;5084747;28;45536;-67
2022/10/23 12:05:57;;;;;;;1.63;1.50;;;20.70;60.30;;;;;;5086322;28;45310;-69
2022/10/23 12:08:26;;;;;;;1.65;1.55;;;20.90;60.10;;;;;;5084963;28;45486;-69
2022/10/23 12:10:54;;;;;;;1.35;1.25;;;21.00;59.90;;;;;;5085690;28;47325;-69
2022/10/23 12:13:42;;;;;;;1.70;1.27;;;21.10;59.90;;;;;;5080348;28;45200;-69
2022/10/23 12:16:10;;;;;;;1.20;1.20;;;21.10;59.60;;;;;;5082268;27;45482;-69
2022/10/23 12:18:45;;;;;;;2.03;1.60;;;21.20;59.60;;;;;;5084218;27;45462;-69
2022/10/23 12:21:15;;;;;;;3.10;1.40;;;21.30;59.50;;;;;;5084188;28;45367;-67
2022/10/23 12:24:09;;;;;;;1.40;1.30;;;21.30;59.60;;;;;;5085262;28;45341;-67
2022/10/23 12:26:49;;;;;;;1.30;1.20;;;21.40;59.70;;;;;;5069248;27;45636;-67
2022/10/23 12:29:22;;;;;;;1.98;1.30;;;21.40;60.40;;;;;;5083653;27;45359;-67
2022/10/23 12:31:52;;;;;;;1.33;1.23;;;21.50;59.40;;;;;;5084885;27;45317;-67
2022/10/23 12:34:27;;;;;;;1.30;1.20;;;21.50;59.40;;;;;;5076784;27;45128;-70
2022/10/23 12:37:24;;;;;;;1.75;1.35;;;21.50;59.60;;;;;;5076942;28;45209;-67
2022/10/23 12:39:54;;;;;;;1.30;1.20;;;21.50;59.50;;;;;;5067541;27;45439;-68
2022/10/23 12:42:22;;;;;;;1.30;1.20;;;21.60;59.60;;;;;;5073382;27;45388;-68
2022/10/23 12:44:58;;;;;;;1.33;1.20;;;21.60;59.90;;;;;;5084393;28;45531;-68
2022/10/23 12:47:26;;;;;;;3.55;1.48;;;21.50;59.50;;;;;;5080935;28;45262;-68
2022/10/23 12:49:53;;;;;;;2.97;1.20;;;21.50;60.20;;;;;;5081570;27;45494;-67
2022/10/23 12:52:20;;;;;;;1.35;1.17;;;21.50;60.30;;;;;;5080488;28;46535;-68